Green Pond, SC (29446)

10:56 AM EDT on August 27, 2016 (GMT -0400)
Wood Road | | Change Station

Elev 40 ft 32.73 °N, 80.61 °W | Updated 7 minutes ago

Clear
Clear
83.2 °F
Feels Like 92 °F
N
0.0
Wind Variable Wind from SE
Gusts 3.0 mph

Today
High -- | Low -- °F
--% Chance of Precip.
Yesterday
High -- | Low -- °F
Precip. -- in
Pressure 30.09 in
Visibility 10.0 miles
Clouds Clear
Heat Index 92 °F
Dew Point 76 °F
Humidity 80%
Rainfall 0.00 in
Snow Depth Not available.
6:53 AM 7:52 PM
Waning Crescent, 24% visible
METAR KNBC 271356Z AUTO 06008KT 10SM CLR 29/22 A3008 RMK AO2 SLP187 T02890222
Pressure 30.09 in
Visibility 10.0 miles
Clouds Clear
Heat Index 92 °F
Dew Point 76 °F
Humidity 80%
Rainfall 0.00 in
Snow Depth Not available.
6:53 AM 7:52 PM
Waning Crescent, 24% visible
METAR KNBC 271356Z AUTO 06008KT 10SM CLR 29/22 A3008 RMK AO2 SLP187 T02890222

10-Day Weather Forecast

Almanac

Astronomy

Aug. 27, 2016 Rise Set
Actual Time
Civil Twilight
Nautical Twilight
Astronomical Twilight
Moon
Length of Visible Light
Length of Day
Tomorrow will be .
, % of the Moon is Illuminated

Today's Extremes

State Highs State Lows

Community

WunderPhotos

Upload Photos

1,935,344 photos uploaded!

WunderBlog® & News

Nearby

Air Quality

  Air Quality AQ Index Pollutant
Not available.

Snow Depth

Station Depth Elevation

Earthquake Activity

City Distance Mag. Time & Date
Minimum magnitude displayed is 2.5.

Coastal Water Temperatures

Place Temperature

Stations

Nearby Weather Stations

Station Location Temp. Windchill Dew Point Humidity Wind Precip. Elev Updated Type
                   

Watches & Warnings

There are currently no watches in effect.